This is the latest recevied weather packets stored in our database for station/object F4CYQ-10. If no packets are shown the sender has not sent any weather packets the latest 10 day(s).
| Time | Temp. | Humidity | Pressure | Rain* | Wind** | Luminosity | Snow |
|---|---|---|---|---|---|---|---|
| 1777692870 | 20° C | 57% | 1017.7 hPa | - | - | - | - |
| 1777691969 | 20.56° C | 56% | 1017.7 hPa | - | - | - | - |
| 1777691068 | 20.56° C | 57% | 1018 hPa | - | - | - | - |
| 1777690167 | -5° C | 100% | 4.8 hPa | - | - | - | - |
| 1777689733 | 20° C | 56% | 1017.8 hPa | - | - | - | - |
| 1777688832 | 20.56° C | 57% | 1017.9 hPa | - | - | - | - |
| 1777687930 | 20.56° C | 57% | 1018 hPa | - | - | - | - |
| 1777687029 | 21.67° C | 57% | 1018.2 hPa | - | - | - | - |
| 1777686590 | 20.56° C | 57% | 1018.1 hPa | - | - | - | - |
| 1777685689 | 20.56° C | 57% | 1018.3 hPa | - | - | - | - |
| 1777684788 | 20.56° C | 58% | 1018.2 hPa | - | - | - | - |
| 1777683887 | 21.67° C | 57% | 1018.3 hPa | - | - | - | - |
| 1777683331 | 21.67° C | 57% | 1018.9 hPa | - | - | - | - |
| 1777683209 | 20.56° C | 58% | 1018.7 hPa | - | - | - | - |
| 1777682309 | 20.56° C | 58% | 1018.7 hPa | - | - | - | - |
| 1777681407 | 21.67° C | 57% | 1018.9 hPa | - | - | - | - |
| 1777681392 | 21.11° C | 58% | 1018.9 hPa | - | - | - | - |
| 1777680490 | 21.11° C | 58% | 1018.9 hPa | - | - | - | - |
| 1777679589 | 20.56° C | 58% | 1018.9 hPa | - | - | - | - |
| 1777678688 | 21.67° C | 58% | 1019.1 hPa | - | - | - | - |
| 1777678455 | 21.11° C | 58% | 1019.1 hPa | - | - | - | - |
| 1777677554 | 20.56° C | 57% | 1019.3 hPa | - | - | - | - |
| 1777676653 | 21.11° C | 58% | 1019.4 hPa | - | - | - | - |
| 1777675752 | 21.67° C | 58% | 1019.6 hPa | - | - | - | - |
| 1777675339 | 20° C | 57% | 1019.5 hPa | - | - | - | - |
* Rain since midnight (hover to see other rain measurements)
** Current wind speed in m/s (hover to see current wind gust speed)